Time;durP1;ratioP1;P1;durP2;ratioP2;P2;SDS_P1;SDS_P2;PMS_P1;PMS_P2;Temp;Humidity;BMP_temperature;BMP_pressure;BME280_temperature;BME280_humidity;BME280_pressure;Samples;Min_cycle;Max_cycle;Signal;HPM_P1;HPM_P2
2022/04/23 00:00:42;;;;;;;;;;;12.40;90.50;;;;;;4995803;28;19996;-77
2022/04/23 00:03:10;;;;;;;;;;;12.40;90.60;;;;;;4986947;28;19952;-77
2022/04/23 00:05:38;;;;;;;;;;;12.40;90.60;;;;;;4998052;28;20458;-79
2022/04/23 00:08:05;;;;;;;;;;;12.30;90.70;;;;;;4984165;28;19969;-77
2022/04/23 00:10:32;;;;;;;;;;;12.30;90.70;;;;;;4982633;28;19976;-77
2022/04/23 00:12:59;;;;;;;;;;;12.30;90.70;;;;;;4988847;28;20420;-77
2022/04/23 00:15:27;;;;;;;;;;;12.30;90.80;;;;;;4986412;28;19957;-78
2022/04/23 00:17:55;;;;;;;;;;;12.30;90.90;;;;;;4986650;28;19929;-78
2022/04/23 00:20:24;;;;;;;;;;;12.30;90.90;;;;;;4981261;28;19929;-77
2022/04/23 00:22:51;;;;;;;;;;;12.30;90.90;;;;;;4989832;28;19976;-77
2022/04/23 00:25:18;;;;;;;;;;;12.20;90.90;;;;;;4986606;28;19934;-77
2022/04/23 00:27:45;;;;;;;;;;;12.20;91.00;;;;;;4982710;28;19926;-77
2022/04/23 00:30:12;;;;;;;;;;;12.20;90.90;;;;;;4996804;28;20012;-78
2022/04/23 00:32:39;;;;;;;;;;;12.20;91.00;;;;;;4991600;28;19929;-78
2022/04/23 00:35:08;;;;;;;;;;;12.20;91.00;;;;;;4986758;28;19933;-77
2022/04/23 00:37:35;;;;;;;;;;;12.20;90.90;;;;;;4990914;28;20001;-77
2022/04/23 00:40:06;;;;;;;;;;;12.10;90.80;;;;;;4971186;28;19948;-77
2022/04/23 00:42:33;;;;;;;;;;;12.10;90.90;;;;;;4989529;28;19929;-77
2022/04/23 00:45:00;;;;;;;;;;;12.10;91.00;;;;;;4987362;28;19972;-77
2022/04/23 00:47:27;;;;;;;;;;;12.10;91.20;;;;;;4995463;28;19927;-77
2022/04/23 00:49:54;;;;;;;;;;;12.10;91.20;;;;;;4987769;28;19938;-77
2022/04/23 00:52:23;;;;;;;;;;;12.10;91.20;;;;;;4992230;28;19926;-78
2022/04/23 00:54:49;;;;;;;;;;;12.10;91.30;;;;;;4967700;28;19941;-77
2022/04/23 00:57:16;;;;;;;;;;;12.00;91.30;;;;;;4993560;28;19926;-78
2022/04/23 00:59:43;;;;;;;;;;;12.00;91.40;;;;;;4997148;28;19926;-77
2022/04/23 01:02:12;;;;;;;;;;;12.00;91.40;;;;;;4986516;28;20304;-77
2022/04/23 01:04:39;;;;;;;;;;;12.00;91.40;;;;;;4997279;28;19969;-78
2022/04/23 01:07:06;;;;;;;;;;;12.00;91.40;;;;;;4984292;28;19926;-77
2022/04/23 01:09:34;;;;;;;;;;;12.00;91.40;;;;;;4967299;28;19959;-78
2022/04/23 01:12:01;;;;;;;;;;;11.90;91.50;;;;;;4975263;28;20452;-77
2022/04/23 01:14:28;;;;;;;;;;;11.90;91.60;;;;;;4992724;28;19930;-77
2022/04/23 01:16:56;;;;;;;;;;;11.90;91.60;;;;;;4975130;28;19930;-77
2022/04/23 01:19:23;;;;;;;;;;;11.90;91.60;;;;;;4996515;28;20020;-78
2022/04/23 01:21:51;;;;;;;;;;;11.90;91.70;;;;;;4986738;28;19926;-77
2022/04/23 01:24:18;;;;;;;;;;;11.90;91.60;;;;;;4991571;28;19989;-77
2022/04/23 01:26:45;;;;;;;;;;;11.90;91.70;;;;;;4973052;28;19933;-77
2022/04/23 01:29:13;;;;;;;;;;;11.90;91.70;;;;;;4983217;28;20226;-78
2022/04/23 01:31:39;;;;;;;;;;;11.90;91.70;;;;;;4972227;28;19926;-77
2022/04/23 01:34:06;;;;;;;;;;;11.80;91.60;;;;;;4995595;28;19972;-76
2022/04/23 01:36:33;;;;;;;;;;;11.90;91.80;;;;;;4974004;28;19926;-77
2022/04/23 01:39:01;;;;;;;;;;;11.80;91.70;;;;;;4982694;28;19926;-77
2022/04/23 01:41:28;;;;;;;;;;;11.80;91.70;;;;;;4982538;28;19929;-77
2022/04/23 01:43:58;;;;;;;;;;;11.80;91.80;;;;;;4975722;28;19926;-77
2022/04/23 01:46:25;;;;;;;;;;;11.80;91.80;;;;;;4978661;28;19965;-77
2022/04/23 01:48:52;;;;;;;;;;;11.80;91.90;;;;;;4998059;28;19936;-78
2022/04/23 01:51:19;;;;;;;;;;;11.80;91.90;;;;;;4986931;28;20311;-77
2022/04/23 01:53:46;;;;;;;;;;;11.80;92.00;;;;;;4990807;28;20012;-77
2022/04/23 01:56:14;;;;;;;;;;;11.70;92.00;;;;;;4976717;28;19976;-77
2022/04/23 01:58:41;;;;;;;;;;;11.70;92.10;;;;;;4986032;28;19926;-77
2022/04/23 02:01:08;;;;;;;;;;;11.70;92.10;;;;;;4973129;28;19932;-77
2022/04/23 02:03:35;;;;;;;;;;;11.70;92.20;;;;;;4991033;28;19933;-77
2022/04/23 02:06:02;;;;;;;;;;;11.70;92.20;;;;;;4996052;28;19941;-76
2022/04/23 02:08:29;;;;;;;;;;;11.70;92.20;;;;;;4989573;28;19930;-78
2022/04/23 02:10:56;;;;;;;;;;;11.70;92.20;;;;;;4990690;28;20122;-77
2022/04/23 02:13:26;;;;;;;;;;;11.70;92.20;;;;;;4988861;28;19969;-77
2022/04/23 02:15:53;;;;;;;;;;;11.70;92.20;;;;;;4989448;28;20332;-77
2022/04/23 02:18:21;;;;;;;;;;;11.60;92.10;;;;;;4982573;28;20299;-77
2022/04/23 02:20:48;;;;;;;;;;;11.60;92.20;;;;;;4971429;28;19926;-76
2022/04/23 02:23:15;;;;;;;;;;;11.60;92.20;;;;;;4967378;28;20352;-77
2022/04/23 02:25:42;;;;;;;;;;;11.60;92.20;;;;;;4985255;28;19934;-77
2022/04/23 02:28:09;;;;;;;;;;;11.60;92.20;;;;;;4986917;28;19988;-77
2022/04/23 02:30:38;;;;;;;;;;;11.60;92.20;;;;;;4995894;28;19925;-78
2022/04/23 02:33:05;;;;;;;;;;;11.60;92.30;;;;;;4993203;28;20500;-77
2022/04/23 02:35:34;;;;;;;;;;;11.60;92.40;;;;;;4980530;28;19925;-77
2022/04/23 02:38:01;;;;;;;;;;;11.60;92.40;;;;;;4988275;28;20392;-77
2022/04/23 02:40:28;;;;;;;;;;;11.50;92.30;;;;;;4991054;28;19934;-77
2022/04/23 02:42:56;;;;;;;;;;;11.50;92.30;;;;;;4988380;28;20384;-77
2022/04/23 02:45:24;;;;;;;;;;;11.50;92.20;;;;;;4976858;28;19961;-77
2022/04/23 02:47:53;;;;;;;;;;;11.50;92.30;;;;;;4990174;28;19926;-78
2022/04/23 02:50:25;;;;;;;;;;;11.50;92.30;;;;;;4997643;28;19926;-77
2022/04/23 02:52:52;;;;;;;;;;;11.50;92.30;;;;;;4991444;28;19926;-76
2022/04/23 02:55:19;;;;;;;;;;;11.50;92.40;;;;;;4978956;28;19941;-77
2022/04/23 02:57:46;;;;;;;;;;;11.50;92.40;;;;;;4984203;28;19926;-77
2022/04/23 03:00:13;;;;;;;;;;;11.50;92.40;;;;;;5003693;28;19926;-77
2022/04/23 03:02:41;;;;;;;;;;;11.50;92.40;;;;;;4986200;28;19926;-77
2022/04/23 03:05:10;;;;;;;;;;;11.40;92.40;;;;;;4987469;28;19981;-78
2022/04/23 03:07:38;;;;;;;;;;;11.40;92.40;;;;;;4998508;28;20575;-77
2022/04/23 03:10:05;;;;;;;;;;;11.40;92.40;;;;;;4992092;28;19934;-77
2022/04/23 03:12:32;;;;;;;;;;;11.40;92.40;;;;;;4990745;28;19932;-77
2022/04/23 03:14:59;;;;;;;;;;;11.40;92.40;;;;;;4987402;28;20028;-77
2022/04/23 03:17:26;;;;;;;;;;;11.40;92.40;;;;;;4989984;28;19926;-77
2022/04/23 03:19:54;;;;;;;;;;;11.40;92.40;;;;;;4989596;28;19930;-77
2022/04/23 03:22:22;;;;;;;;;;;11.40;92.40;;;;;;4991141;28;19964;-78
2022/04/23 03:24:49;;;;;;;;;;;11.40;92.40;;;;;;4999817;28;19937;-77
2022/04/23 03:27:16;;;;;;;;;;;11.30;92.40;;;;;;4990333;28;19926;-77
2022/04/23 03:29:44;;;;;;;;;;;11.30;92.50;;;;;;4992276;28;19930;-77
2022/04/23 03:32:11;;;;;;;;;;;11.40;92.50;;;;;;4981554;28;20005;-77
2022/04/23 03:34:38;;;;;;;;;;;11.30;92.60;;;;;;4985873;28;20356;-77
2022/04/23 03:37:05;;;;;;;;;;;11.30;92.60;;;;;;4991565;28;20056;-77
2022/04/23 03:39:34;;;;;;;;;;;11.30;92.70;;;;;;4989502;28;19926;-77
2022/04/23 03:42:02;;;;;;;;;;;11.30;92.70;;;;;;4988589;28;19932;-77
2022/04/23 03:44:30;;;;;;;;;;;11.30;92.80;;;;;;4985579;28;19930;-77
2022/04/23 03:46:57;;;;;;;;;;;11.30;92.80;;;;;;4995288;28;19925;-77
2022/04/23 03:49:24;;;;;;;;;;;11.20;92.80;;;;;;4987589;28;19926;-77
2022/04/23 03:51:51;;;;;;;;;;;11.20;92.80;;;;;;4979042;28;19925;-77
2022/04/23 03:54:18;;;;;;;;;;;11.20;92.90;;;;;;4988893;28;19926;-77
2022/04/23 03:56:46;;;;;;;;;;;11.20;92.90;;;;;;4992724;28;20305;-77
2022/04/23 03:59:14;;;;;;;;;;;11.20;92.90;;;;;;4994595;28;19930;-77
2022/04/23 04:01:41;;;;;;;;;;;11.20;92.90;;;;;;4986825;28;19930;-77
2022/04/23 04:04:08;;;;;;;;;;;11.20;92.90;;;;;;4993932;28;20068;-77
2022/04/23 04:06:35;;;;;;;;;;;11.20;92.90;;;;;;4981444;28;19926;-77
2022/04/23 04:09:02;;;;;;;;;;;11.10;92.90;;;;;;4995597;28;19926;-77
2022/04/23 04:12:01;;;;;;;;;;;11.10;92.90;;;;;;4995318;28;19933;-78
2022/04/23 04:14:18;;;;;;;;;;;11.10;92.90;;;;;;4989004;28;19952;-77
2022/04/23 04:16:45;;;;;;;;;;;11.10;92.90;;;;;;4992853;28;19926;-77
2022/04/23 04:19:14;;;;;;;;;;;11.10;92.90;;;;;;4997827;28;20013;-77
2022/04/23 04:21:41;;;;;;;;;;;11.10;92.90;;;;;;4974056;28;19965;-77
2022/04/23 04:24:08;;;;;;;;;;;11.10;92.80;;;;;;4977682;28;19984;-77
2022/04/23 04:26:35;;;;;;;;;;;11.10;92.80;;;;;;4992752;28;19996;-77
2022/04/23 04:29:02;;;;;;;;;;;11.10;92.80;;;;;;4997121;28;19926;-77
2022/04/23 04:31:49;;;;;;;;;;;11.00;92.80;;;;;;4991785;28;19925;-76
2022/04/23 04:34:16;;;;;;;;;;;11.00;92.80;;;;;;4976707;28;19933;-77
2022/04/23 04:36:43;;;;;;;;;;;11.00;92.80;;;;;;4994981;28;20056;-77
2022/04/23 04:39:10;;;;;;;;;;;11.00;92.80;;;;;;4990439;28;20086;-77
2022/04/23 04:41:37;;;;;;;;;;;11.00;92.80;;;;;;4983719;28;19958;-77
2022/04/23 04:44:05;;;;;;;;;;;11.00;92.80;;;;;;4993376;28;19926;-77
2022/04/23 04:46:33;;;;;;;;;;;11.00;92.80;;;;;;4996506;28;19925;-77
2022/04/23 04:49:00;;;;;;;;;;;10.90;92.80;;;;;;4984787;28;19926;-76
2022/04/23 04:51:27;;;;;;;;;;;10.90;92.80;;;;;;4988840;28;20360;-77
2022/04/23 04:53:54;;;;;;;;;;;10.90;92.80;;;;;;4990324;28;19984;-77
2022/04/23 04:56:21;;;;;;;;;;;10.90;92.80;;;;;;4987061;28;20285;-78
2022/04/23 04:58:48;;;;;;;;;;;10.90;92.80;;;;;;4991125;28;19929;-77
2022/04/23 05:01:17;;;;;;;;;;;10.90;92.80;;;;;;4986905;28;19925;-78
2022/04/23 05:03:45;;;;;;;;;;;10.90;92.80;;;;;;4991934;28;20025;-77
2022/04/23 05:06:12;;;;;;;;;;;10.90;92.90;;;;;;4985806;28;19981;-77
2022/04/23 05:08:39;;;;;;;;;;;10.80;92.80;;;;;;4995856;28;19973;-77
2022/04/23 05:11:06;;;;;;;;;;;10.80;92.80;;;;;;4991192;28;20391;-77
2022/04/23 05:13:33;;;;;;;;;;;10.80;92.80;;;;;;4983839;28;19926;-77
2022/04/23 05:16:00;;;;;;;;;;;10.80;92.80;;;;;;4968447;28;19929;-78
2022/04/23 05:18:27;;;;;;;;;;;10.80;92.80;;;;;;4992358;28;19929;-77
2022/04/23 05:20:55;;;;;;;;;;;10.80;92.80;;;;;;4994624;28;19934;-77
2022/04/23 05:23:22;;;;;;;;;;;10.80;92.80;;;;;;4996777;28;19926;-78
2022/04/23 05:25:49;;;;;;;;;;;10.80;92.80;;;;;;4991443;28;19933;-77
2022/04/23 05:28:16;;;;;;;;;;;10.80;92.80;;;;;;4985655;28;19926;-77
2022/04/23 05:30:44;;;;;;;;;;;10.80;92.70;;;;;;4982762;28;20016;-78
2022/04/23 05:33:11;;;;;;;;;;;10.80;92.70;;;;;;4983588;28;20008;-76
2022/04/23 05:35:40;;;;;;;;;;;10.80;92.80;;;;;;4993128;28;19969;-76
2022/04/23 05:38:08;;;;;;;;;;;10.70;92.80;;;;;;4985566;28;19927;-79
2022/04/23 05:40:35;;;;;;;;;;;10.70;92.80;;;;;;4994849;28;20202;-77
2022/04/23 05:43:02;;;;;;;;;;;10.70;92.80;;;;;;4981923;28;19933;-77
2022/04/23 05:45:30;;;;;;;;;;;10.70;92.80;;;;;;4991173;28;19972;-77
2022/04/23 05:47:57;;;;;;;;;;;10.70;92.80;;;;;;4991387;28;19926;-77
2022/04/23 05:50:24;;;;;;;;;;;10.70;92.80;;;;;;4987517;28;19932;-78
2022/04/23 05:52:52;;;;;;;;;;;10.70;92.80;;;;;;4984026;28;19926;-78
2022/04/23 05:55:20;;;;;;;;;;;10.70;92.80;;;;;;4979729;28;20438;-77
2022/04/23 05:57:47;;;;;;;;;;;10.60;92.80;;;;;;4980570;28;19926;-77
2022/04/23 06:00:15;;;;;;;;;;;10.60;92.80;;;;;;4982407;28;20488;-77
2022/04/23 06:02:42;;;;;;;;;;;10.60;92.80;;;;;;5109581;23;20201;-75
2022/04/23 06:07:37;;;;;;;;;;;10.60;92.90;;;;;;4933427;23;19925;-76
2022/04/23 06:10:04;;;;;;;;;;;10.60;92.90;;;;;;4974716;28;19929;-76
2022/04/23 06:12:32;;;;;;;;;;;10.60;93.00;;;;;;4971365;28;19934;-76
2022/04/23 06:14:59;;;;;;;;;;;10.60;93.00;;;;;;4968167;28;19930;-76
2022/04/23 06:17:26;;;;;;;;;;;10.60;93.00;;;;;;4973018;28;19926;-76
2022/04/23 06:19:55;;;;;;;;;;;10.60;93.10;;;;;;4969294;28;20416;-75
2022/04/23 06:22:22;;;;;;;;;;;10.50;93.00;;;;;;4964757;28;19969;-75
2022/04/23 06:24:49;;;;;;;;;;;10.50;93.10;;;;;;4962758;28;19934;-75
2022/04/23 06:27:16;;;;;;;;;;;10.50;93.10;;;;;;4975383;28;20012;-76
2022/04/23 06:29:44;;;;;;;;;;;10.50;93.10;;;;;;4969797;28;20316;-76
2022/04/23 06:32:11;;;;;;;;;;;10.50;93.20;;;;;;4960036;28;19926;-76
2022/04/23 06:34:38;;;;;;;;;;;10.50;93.20;;;;;;4947499;28;19926;-76
2022/04/23 06:37:05;;;;;;;;;;;10.50;93.20;;;;;;4960924;28;19945;-75
2022/04/23 06:39:33;;;;;;;;;;;10.50;93.20;;;;;;4961338;28;19937;-77
2022/04/23 06:42:00;;;;;;;;;;;10.50;93.20;;;;;;4967549;28;19926;-76
2022/04/23 06:44:28;;;;;;;;;;;10.50;93.20;;;;;;4968240;28;19941;-75
2022/04/23 06:46:57;;;;;;;;;;;10.40;93.20;;;;;;4954490;28;19934;-75
2022/04/23 06:49:27;;;;;;;;;;;10.40;93.20;;;;;;4965636;28;20416;-76
2022/04/23 06:51:54;;;;;;;;;;;10.40;93.30;;;;;;4964789;28;20013;-77
2022/04/23 06:54:21;;;;;;;;;;;10.40;93.30;;;;;;4939478;28;21589;-76
2022/04/23 06:56:48;;;;;;;;;;;10.40;93.40;;;;;;4969958;28;19972;-75
2022/04/23 06:59:15;;;;;;;;;;;10.40;93.40;;;;;;4958333;28;20452;-76
2022/04/23 07:01:42;;;;;;;;;;;10.40;93.50;;;;;;4974495;28;19926;-76
2022/04/23 07:04:11;;;;;;;;;;;10.40;93.50;;;;;;4939292;28;20320;-75
2022/04/23 07:06:38;;;;;;;;;;;10.40;93.50;;;;;;4917857;28;855258;-74
2022/04/23 07:09:05;;;;;;;;;;;10.40;93.50;;;;;;4958216;28;19932;-75
2022/04/23 07:11:32;;;;;;;;;;;10.40;93.60;;;;;;4944664;28;19967;-75
2022/04/23 07:13:59;;;;;;;;;;;10.40;93.60;;;;;;4965908;28;20416;-76
2022/04/23 07:16:26;;;;;;;;;;;10.40;93.70;;;;;;4966332;28;19932;-76
2022/04/23 07:18:53;;;;;;;;;;;10.30;93.60;;;;;;4968688;28;20352;-77
2022/04/23 07:21:21;;;;;;;;;;;10.30;93.60;;;;;;4959461;28;20396;-76
2022/04/23 07:24:04;;;;;;;;;;;10.30;93.70;;;;;;4969431;28;19965;-76
2022/04/23 07:26:31;;;;;;;;;;;10.30;93.70;;;;;;4964595;28;20021;-76
2022/04/23 07:28:58;;;;;;;;;;;10.30;93.70;;;;;;4968914;28;20452;-76
2022/04/23 07:31:25;;;;;;;;;;;10.30;93.70;;;;;;4953643;28;19934;-76
2022/04/23 07:39:22;;;;;;;;;;;10.30;93.70;;;;;;4966990;28;20259;-76
2022/04/23 07:41:49;;;;;;;;;;;10.30;93.70;;;;;;4969824;28;20365;-76
2022/04/23 07:44:16;;;;;;;;;;;10.30;93.70;;;;;;4965633;28;19973;-75
2022/04/23 07:46:43;;;;;;;;;;;10.30;93.70;;;;;;4965304;28;20987;-76
2022/04/23 07:49:10;;;;;;;;;;;10.30;93.70;;;;;;4950421;28;19930;-76
2022/04/23 07:51:38;;;;;;;;;;;10.30;93.70;;;;;;4967480;28;19930;-75
2022/04/23 07:54:05;;;;;;;;;;;10.30;93.70;;;;;;4947106;28;19978;-76
2022/04/23 07:56:33;;;;;;;;;;;10.30;93.70;;;;;;4968926;28;19926;-76
2022/04/23 07:59:00;;;;;;;;;;;10.30;93.80;;;;;;4955300;28;19930;-76
2022/04/23 08:01:27;;;;;;;;;;;10.30;93.80;;;;;;4970277;28;19984;-77
2022/04/23 08:03:54;;;;;;;;;;;10.30;93.80;;;;;;4969249;28;19930;-76
2022/04/23 08:06:21;;;;;;;;;;;10.30;93.80;;;;;;4962099;28;19930;-75
2022/04/23 08:08:49;;;;;;;;;;;10.30;93.90;;;;;;4967507;28;19932;-75
2022/04/23 08:11:16;;;;;;;;;;;10.30;93.90;;;;;;4969452;28;19934;-76
2022/04/23 08:13:43;;;;;;;;;;;10.30;93.90;;;;;;4960162;28;19926;-75
2022/04/23 08:16:10;;;;;;;;;;;10.30;93.90;;;;;;4946436;28;19926;-76
2022/04/23 08:18:37;;;;;;;;;;;10.30;93.90;;;;;;4962163;28;19930;-76
2022/04/23 08:21:04;;;;;;;;;;;10.30;94.00;;;;;;4938379;28;19926;-75
2022/04/23 08:23:33;;;;;;;;;;;10.30;94.00;;;;;;4957717;28;19937;-75
2022/04/23 08:26:02;;;;;;;;;;;10.30;94.00;;;;;;4956717;28;19934;-75
2022/04/23 08:31:14;;;;;;;;;;;10.30;94.10;;;;;;4959872;28;19922;-76
2022/04/23 08:34:00;;;;;;;;;;;10.30;94.10;;;;;;4963968;28;20407;-75
2022/04/23 08:36:29;;;;;;;;;;;10.30;94.20;;;;;;4959560;28;19972;-77
2022/04/23 08:38:56;;;;;;;;;;;10.30;94.20;;;;;;4962270;28;19949;-77
2022/04/23 08:41:28;;;;;;;;;;;10.30;94.20;;;;;;4959284;28;19926;-76
2022/04/23 08:44:02;;;;;;;;;;;10.30;94.20;;;;;;4966326;28;19934;-76
2022/04/23 08:46:29;;;;;;;;;;;10.30;94.30;;;;;;4962252;28;20014;-76
2022/04/23 08:48:59;;;;;;;;;;;10.30;94.30;;;;;;4961410;28;19973;-77
2022/04/23 08:51:27;;;;;;;;;;;10.30;94.30;;;;;;4962554;28;19930;-75
2022/04/23 08:53:57;;;;;;;;;;;10.30;94.30;;;;;;4952820;28;20007;-77
2022/04/23 08:56:25;;;;;;;;;;;10.30;94.40;;;;;;4965480;28;19935;-75
2022/04/23 08:58:52;;;;;;;;;;;10.30;94.40;;;;;;4969820;28;19925;-76
2022/04/23 09:01:21;;;;;;;;;;;10.30;94.40;;;;;;4969597;28;19984;-76
2022/04/23 09:03:48;;;;;;;;;;;10.30;94.40;;;;;;4964885;28;20294;-75
2022/04/23 09:06:15;;;;;;;;;;;10.30;94.40;;;;;;4963078;28;19934;-77
2022/04/23 09:08:57;;;;;;;;;;;10.30;94.40;;;;;;4968519;28;19962;-76
2022/04/23 09:11:35;;;;;;;;;;;10.30;94.40;;;;;;4958374;28;19926;-76
2022/04/23 09:14:02;;;;;;;;;;;10.30;94.40;;;;;;4965875;28;19934;-78
2022/04/23 09:24:45;;;;;;;;;;;10.40;94.60;;;;;;4966041;28;19977;-76
2022/04/23 09:27:13;;;;;;;;;;;10.40;94.60;;;;;;4968162;28;19934;-77
2022/04/23 09:29:42;;;;;;;;;;;10.40;94.60;;;;;;4966811;28;19926;-77
2022/04/23 09:32:10;;;;;;;;;;;10.40;94.60;;;;;;4973262;28;19956;-77
2022/04/23 09:34:38;;;;;;;;;;;10.40;94.60;;;;;;4970878;28;19930;-76
2022/04/23 09:37:05;;;;;;;;;;;10.40;94.70;;;;;;4960616;28;20017;-75
2022/04/23 09:39:34;;;;;;;;;;;10.40;94.60;;;;;;4971938;28;20381;-76
2022/04/23 09:42:17;;;;;;;;;;;10.40;94.60;;;;;;4972997;28;19953;-76
2022/04/23 09:44:44;;;;;;;;;;;10.40;94.70;;;;;;4946768;28;19926;-76
2022/04/23 09:47:11;;;;;;;;;;;10.40;94.60;;;;;;4967858;28;19966;-77
2022/04/23 09:49:40;;;;;;;;;;;10.40;94.60;;;;;;4964309;28;19926;-76
2022/04/23 09:52:07;;;;;;;;;;;10.40;94.60;;;;;;4967190;28;20024;-76
2022/04/23 09:54:35;;;;;;;;;;;10.40;94.60;;;;;;4960494;28;19986;-77
2022/04/23 09:57:03;;;;;;;;;;;10.40;94.60;;;;;;4959139;28;19937;-78
2022/04/23 09:59:32;;;;;;;;;;;10.40;94.60;;;;;;4959411;28;19941;-78
2022/04/23 10:01:59;;;;;;;;;;;10.50;94.70;;;;;;4958371;28;20120;-76
2022/04/23 10:04:26;;;;;;;;;;;10.50;94.60;;;;;;4941938;28;19970;-77
2022/04/23 10:06:54;;;;;;;;;;;10.40;94.60;;;;;;4953275;28;20389;-76
2022/04/23 10:09:22;;;;;;;;;;;10.50;94.60;;;;;;4957233;28;19934;-76
2022/04/23 10:11:50;;;;;;;;;;;10.50;94.70;;;;;;4963710;28;19926;-76
2022/04/23 10:14:19;;;;;;;;;;;10.50;94.70;;;;;;4954408;28;19934;-76
2022/04/23 10:16:48;;;;;;;;;;;10.50;94.70;;;;;;4966289;28;20020;-76
2022/04/23 10:19:15;;;;;;;;;;;10.50;94.70;;;;;;4951200;28;19926;-77
2022/04/23 10:21:45;;;;;;;;;;;10.50;94.70;;;;;;4958965;28;20304;-76
2022/04/23 10:24:14;;;;;;;;;;;10.50;94.70;;;;;;4943844;28;19939;-76
2022/04/23 10:26:48;;;;;;;;;;;10.50;94.60;;;;;;4965470;28;19930;-76
2022/04/23 10:29:16;;;;;;;;;;;10.50;94.70;;;;;;4963763;28;19973;-76
2022/04/23 10:31:43;;;;;;;;;;;10.50;94.70;;;;;;4959847;28;20021;-75
2022/04/23 10:34:25;;;;;;;;;;;10.50;94.60;;;;;;4952694;28;19933;-76
2022/04/23 10:37:13;;;;;;;;;;;10.60;94.80;;;;;;4953576;28;19974;-76
2022/04/23 10:39:40;;;;;;;;;;;10.60;95.30;;;;;;4960991;28;19934;-77
2022/04/23 10:42:07;;;;;;;;;;;10.60;95.20;;;;;;4958223;28;19953;-77
2022/04/23 10:44:34;;;;;;;;;;;10.60;95.40;;;;;;4958615;28;19930;-77
2022/04/23 10:47:01;;;;;;;;;;;10.60;95.40;;;;;;4961072;28;20389;-76
2022/04/23 10:49:27;;;;;;;;;;;10.60;95.50;;;;;;4939575;28;19930;-76
2022/04/23 10:51:55;;;;;;;;;;;10.60;95.60;;;;;;4950333;28;20296;-77
2022/04/23 10:54:43;;;;;;;;;;;10.60;95.80;;;;;;4931722;28;19930;-77
2022/04/23 10:57:11;;;;;;;;;;;10.60;95.80;;;;;;4957896;28;19933;-76
2022/04/23 10:59:42;;;;;;;;;;;10.60;96.00;;;;;;4942049;28;19984;-77
2022/04/23 11:02:29;;;;;;;;;;;10.60;95.90;;;;;;4954594;28;20057;-77
2022/04/23 11:12:14;;;;;;;;;;;10.70;96.00;;;;;;4957089;28;19926;-77
2022/04/23 11:13:28;;;;;;;;;;;10.70;96.40;;;;;;4955475;28;19970;-76
2022/04/23 11:16:06;;;;;;;;;;;10.70;96.40;;;;;;4961338;28;20017;-76
2022/04/23 11:18:34;;;;;;;;;;;10.70;96.60;;;;;;4959703;28;19989;-80
2022/04/23 11:21:05;;;;;;;;;;;10.70;96.40;;;;;;4966105;28;21866;-77
2022/04/23 11:23:33;;;;;;;;;;;10.70;96.60;;;;;;4958694;28;20566;-77
2022/04/23 11:26:01;;;;;;;;;;;10.80;96.90;;;;;;4961744;28;19926;-79
2022/04/23 11:28:29;;;;;;;;;;;10.80;96.70;;;;;;4943509;28;19945;-77
2022/04/23 11:30:57;;;;;;;;;;;10.80;96.30;;;;;;4968840;28;20008;-77
2022/04/23 11:33:24;;;;;;;;;;;10.80;96.20;;;;;;4962771;28;19980;-77
2022/04/23 11:35:51;;;;;;;;;;;10.80;96.20;;;;;;4971098;28;19958;-77
2022/04/23 11:38:18;;;;;;;;;;;10.80;96.20;;;;;;4949962;28;20016;-78
2022/04/23 11:40:45;;;;;;;;;;;10.90;96.30;;;;;;4957737;28;20452;-78
2022/04/23 11:43:28;;;;;;;;;;;10.90;96.90;;;;;;4961087;28;19963;-77
2022/04/23 11:45:57;;;;;;;;;;;11.00;96.80;;;;;;4967750;28;19937;-78
2022/04/23 11:48:24;;;;;;;;;;;11.00;96.80;;;;;;4954608;28;20437;-78
2022/04/23 11:50:52;;;;;;;;;;;11.00;96.70;;;;;;4958919;28;20602;-79
2022/04/23 11:53:19;;;;;;;;;;;11.00;96.60;;;;;;4954851;28;19978;-78
2022/04/23 11:55:49;;;;;;;;;;;11.10;96.60;;;;;;4953214;28;20388;-78
2022/04/23 11:58:20;;;;;;;;;;;11.10;96.60;;;;;;4961305;28;19949;-76
2022/04/23 12:00:47;;;;;;;;;;;11.10;96.60;;;;;;4967893;28;20301;-76
2022/04/23 12:03:14;;;;;;;;;;;11.10;96.60;;;;;;4947691;28;19969;-78
2022/04/23 12:05:42;;;;;;;;;;;11.10;96.60;;;;;;4959474;28;19938;-78
2022/04/23 12:08:20;;;;;;;;;;;11.20;96.60;;;;;;4965306;28;19938;-78
2022/04/23 12:10:47;;;;;;;;;;;11.20;96.60;;;;;;4940501;28;20016;-78
2022/04/23 12:13:14;;;;;;;;;;;11.20;96.60;;;;;;4954380;28;20709;-79
2022/04/23 12:15:46;;;;;;;;;;;11.20;96.60;;;;;;4958253;28;20426;-77
2022/04/23 12:18:15;;;;;;;;;;;11.20;96.70;;;;;;4955743;28;19934;-78
2022/04/23 12:20:42;;;;;;;;;;;11.20;96.60;;;;;;4960701;28;19949;-76
2022/04/23 12:23:09;;;;;;;;;;;11.30;96.70;;;;;;4958117;28;19926;-78
2022/04/23 12:25:36;;;;;;;;;;;11.30;96.60;;;;;;4954577;28;19934;-78
2022/04/23 12:40:43;;;;;;;;;;;11.30;97.20;;;;;;4959942;28;20028;-78
2022/04/23 12:42:00;;;;;;;;;;;11.50;97.30;;;;;;4974278;28;19933;-80
2022/04/23 12:44:32;;;;;;;;;;;11.50;97.30;;;;;;4971096;28;19938;-78
2022/04/23 12:47:01;;;;;;;;;;;11.50;97.20;;;;;;4964700;28;20389;-77
2022/04/23 12:49:47;;;;;;;;;;;11.60;97.20;;;;;;4971766;28;21262;-77
2022/04/23 12:52:20;;;;;;;;;;;11.60;97.20;;;;;;4947661;28;19926;-77
2022/04/23 12:55:06;;;;;;;;;;;11.60;97.20;;;;;;4940885;28;19926;-76
2022/04/23 12:57:34;;;;;;;;;;;11.60;97.20;;;;;;4967065;28;19990;-76
2022/04/23 13:00:01;;;;;;;;;;;11.70;97.20;;;;;;4971821;28;19961;-77
2022/04/23 13:02:36;;;;;;;;;;;11.70;97.20;;;;;;4965578;28;19973;-78
2022/04/23 13:05:03;;;;;;;;;;;11.70;97.20;;;;;;4965563;28;19945;-76
2022/04/23 13:10:14;;;;;;;;;;;11.80;97.20;;;;;;4971227;28;19933;-78
2022/04/23 13:12:41;;;;;;;;;;;11.80;97.20;;;;;;4963043;28;19929;-77
2022/04/23 13:15:08;;;;;;;;;;;11.80;97.10;;;;;;4959311;28;20016;-77
2022/04/23 13:17:38;;;;;;;;;;;11.80;97.10;;;;;;4962268;28;19934;-76
2022/04/23 13:20:06;;;;;;;;;;;11.80;97.10;;;;;;4966175;28;19925;-75
2022/04/23 13:22:33;;;;;;;;;;;11.80;97.10;;;;;;4966257;28;19930;-76
2022/04/23 13:25:00;;;;;;;;;;;11.90;97.20;;;;;;4956074;28;20021;-77
2022/04/23 13:27:27;;;;;;;;;;;11.90;97.40;;;;;;4957328;28;19936;-76
2022/04/23 13:29:53;;;;;;;;;;;12.00;97.40;;;;;;4943144;28;19941;-76
2022/04/23 13:32:20;;;;;;;;;;;12.00;97.30;;;;;;4939822;28;19930;-76
2022/04/23 13:34:49;;;;;;;;;;;12.00;97.20;;;;;;4960484;28;19929;-76
2022/04/23 13:37:16;;;;;;;;;;;12.00;97.20;;;;;;4954117;28;19934;-76
2022/04/23 13:39:43;;;;;;;;;;;12.00;97.20;;;;;;4958689;28;20452;-75
2022/04/23 13:44:38;;;;;;;;;;;12.10;97.20;;;;;;5039082;23;19930;-78
2022/04/23 13:47:05;;;;;;;;;;;12.10;97.30;;;;;;4993021;28;20454;-77
2022/04/23 13:49:32;;;;;;;;;;;12.10;97.50;;;;;;4966897;28;19930;-77
2022/04/23 13:52:01;;;;;;;;;;;12.20;97.60;;;;;;4974793;28;19930;-78
2022/04/23 13:54:27;;;;;;;;;;;12.20;97.60;;;;;;4960910;28;19937;-77
2022/04/23 13:56:54;;;;;;;;;;;12.20;97.60;;;;;;4980002;28;20420;-78
2022/04/23 13:59:21;;;;;;;;;;;12.20;97.50;;;;;;4959845;28;19934;-78
2022/04/23 14:10:08;;;;;;;;;;;12.30;97.70;;;;;;4977476;28;20310;-78
2022/04/23 14:12:35;;;;;;;;;;;12.40;97.70;;;;;;4977304;28;19934;-78
2022/04/23 14:15:03;;;;;;;;;;;12.40;97.70;;;;;;4964291;28;19934;-77
2022/04/23 14:17:30;;;;;;;;;;;12.40;97.70;;;;;;4982001;28;19957;-77
2022/04/23 14:19:56;;;;;;;;;;;12.30;97.60;;;;;;4969207;28;20281;-80
2022/04/23 14:22:25;;;;;;;;;;;12.40;97.80;;;;;;4967844;28;20414;-78
2022/04/23 14:24:52;;;;;;;;;;;12.40;97.70;;;;;;4965097;28;19926;-77
2022/04/23 14:27:19;;;;;;;;;;;12.40;97.60;;;;;;4982502;28;19934;-80
2022/04/23 14:29:48;;;;;;;;;;;12.40;97.60;;;;;;4984432;28;20400;-77
2022/04/23 14:32:16;;;;;;;;;;;12.40;97.50;;;;;;4982331;28;20365;-79
2022/04/23 14:34:44;;;;;;;;;;;12.40;97.60;;;;;;4985468;28;19930;-77
2022/04/23 14:37:11;;;;;;;;;;;12.50;97.70;;;;;;4982646;28;19961;-77
2022/04/23 14:39:39;;;;;;;;;;;12.50;97.80;;;;;;4985138;28;19929;-77
2022/04/23 14:42:06;;;;;;;;;;;12.50;97.70;;;;;;4984400;28;19931;-77
2022/04/23 14:44:34;;;;;;;;;;;12.50;97.60;;;;;;4983466;28;20303;-77
2022/04/23 14:47:01;;;;;;;;;;;12.50;97.50;;;;;;4982260;28;19929;-77
2022/04/23 14:49:28;;;;;;;;;;;12.50;97.50;;;;;;4980353;28;19929;-77
2022/04/23 14:54:41;;;;;;;;;;;12.50;97.40;;;;;;4985906;28;19949;-76
2022/04/23 14:57:08;;;;;;;;;;;12.60;97.70;;;;;;4971992;28;19926;-77
2022/04/23 14:59:35;;;;;;;;;;;12.60;97.70;;;;;;4998719;28;20308;-76
2022/04/23 15:02:02;;;;;;;;;;;12.70;97.60;;;;;;4992068;28;20330;-76
2022/04/23 15:04:29;;;;;;;;;;;12.60;97.40;;;;;;4987347;28;19933;-77
2022/04/23 15:06:56;;;;;;;;;;;12.70;97.50;;;;;;4975905;28;19936;-77
2022/04/23 15:09:23;;;;;;;;;;;12.70;97.50;;;;;;4984531;28;19933;-77
2022/04/23 15:11:51;;;;;;;;;;;12.70;97.40;;;;;;4991451;28;19926;-77
2022/04/23 15:14:18;;;;;;;;;;;12.70;97.40;;;;;;4977647;28;19926;-76